Time;durP1;ratioP1;P1;durP2;ratioP2;P2;SDS_P1;SDS_P2;PMS_P1;PMS_P2;Temp;Humidity;BMP_temperature;BMP_pressure;BME280_temperature;BME280_humidity;BME280_pressure;Samples;Min_cycle;Max_cycle;Signal;HPM_P1;HPM_P2
2023/06/01 00:01:44;;;;;;;0.60;0.60;;;;;;;20.34;100.00;100202.84;5052844;28;20203;-72
2023/06/01 00:04:11;;;;;;;0.70;0.70;;;;;;;20.15;100.00;100187.47;5052617;28;20203;-72
2023/06/01 00:06:38;;;;;;;0.70;0.70;;;;;;;20.30;100.00;100207.34;5052397;28;20230;-72
2023/06/01 00:09:05;;;;;;;1.95;1.48;;;;;;;20.17;100.00;100166.34;5052561;28;20229;-72
2023/06/01 00:11:31;;;;;;;0.60;0.60;;;;;;;20.07;100.00;100160.44;5052721;28;20211;-72
2023/06/01 00:14:00;;;;;;;0.70;0.70;;;;;;;20.19;100.00;100178.56;5052106;28;20202;-71
2023/06/01 00:16:27;;;;;;;0.70;0.70;;;;;;;19.81;100.00;100112.75;5052254;28;20206;-71
2023/06/01 00:18:56;;;;;;;0.65;0.65;;;;;;;20.06;100.00;100179.75;5052878;28;20208;-71
2023/06/01 00:21:23;;;;;;;0.60;0.60;;;;;;;20.11;100.00;100185.81;5052751;28;20206;-72
2023/06/01 00:23:50;;;;;;;0.60;0.60;;;;;;;19.56;100.00;100107.16;5052444;28;20199;-72
2023/06/01 00:26:17;;;;;;;1.08;1.08;;;;;;;19.35;100.00;100080.41;5052273;28;20801;-72
2023/06/01 00:28:44;;;;;;;0.70;0.70;;;;;;;19.67;100.00;100130.63;5052723;28;20221;-72
2023/06/01 00:31:12;;;;;;;0.60;0.60;;;;;;;20.00;100.00;100190.44;5052237;28;20203;-72
2023/06/01 00:33:39;;;;;;;0.50;0.50;;;;;;;19.61;100.00;100150.03;5052196;28;20626;-72
2023/06/01 00:36:06;;;;;;;0.60;0.60;;;;;;;19.58;100.00;100146.59;5051520;28;20207;-72
2023/06/01 00:38:33;;;;;;;0.60;0.60;;;;;;;19.89;100.00;100187.16;5052163;28;20603;-72
2023/06/01 00:40:59;;;;;;;0.60;0.60;;;;;;;19.68;100.00;100161.31;5052241;28;20223;-71
2023/06/01 00:43:26;;;;;;;0.93;0.90;;;;;;;19.40;100.00;100121.53;5051813;28;20670;-72
2023/06/01 00:45:53;;;;;;;0.60;0.60;;;;;;;19.78;100.00;100179.50;5051875;28;20326;-72
2023/06/01 00:48:23;;;;;;;0.60;0.60;;;;;;;19.45;100.00;100110.91;5052154;28;20264;-72
2023/06/01 00:50:50;;;;;;;0.80;0.80;;;;;;;19.63;100.00;100165.78;5052005;28;20200;-72
2023/06/01 00:53:19;;;;;;;0.80;0.80;;;;;;;19.33;100.00;100110.22;5051883;28;20253;-71
2023/06/01 00:55:46;;;;;;;0.60;0.60;;;;;;;18.58;100.00;100027.63;5044395;28;20196;-71
2023/06/01 00:58:13;;;;;;;0.75;0.75;;;;;;;19.09;100.00;100130.88;5013786;28;20200;-71
2023/06/01 01:00:40;;;;;;;0.70;0.70;;;;;;;19.03;100.00;100121.34;5039674;28;20221;-71
2023/06/01 01:03:09;;;;;;;0.60;0.60;;;;;;;19.33;100.00;100186.47;5052219;28;20286;-71
2023/06/01 01:05:38;;;;;;;0.77;0.77;;;;;;;18.97;100.00;100094.31;5051731;28;20228;-71
2023/06/01 01:08:13;;;;;;;0.50;0.50;;;;;;;19.56;100.00;100190.47;5051855;28;20207;-71
2023/06/01 01:10:43;;;;;;;0.70;0.70;;;;;;;19.40;100.00;100178.50;5051659;28;20195;-71
2023/06/01 01:13:15;;;;;;;0.80;0.80;;;;;;;19.00;100.00;100110.91;5052013;28;20203;-71
2023/06/01 01:15:54;;;;;;;0.70;0.70;;;;;;;19.50;100.00;100196.72;5051370;28;20246;-71
2023/06/01 01:18:32;;;;;;;0.60;0.60;;;;;;;19.25;100.00;100185.78;5051650;28;20199;-72
2023/06/01 01:21:03;;;;;;;0.60;0.60;;;;;;;18.93;100.00;100117.16;5028391;28;20212;-72
2023/06/01 01:23:58;;;;;;;0.60;0.60;;;;;;;19.47;100.00;100202.06;5046147;28;20196;-72
2023/06/01 01:26:36;;;;;;;0.60;0.60;;;;;;;19.20;100.00;100192.88;5054263;28;20674;-72
2023/06/01 01:29:08;;;;;;;0.70;0.70;;;;;;;18.76;100.00;100106.09;5054845;28;20681;-72
2023/06/01 01:31:35;;;;;;;0.80;0.80;;;;;;;18.71;100.00;100123.69;5055247;28;20214;-72
2023/06/01 01:34:04;;;;;;;0.63;0.63;;;;;;;18.95;100.00;100196.81;5054701;28;20238;-72
2023/06/01 01:36:31;;;;;;;0.70;0.70;;;;;;;18.21;100.00;100082.50;5018307;28;20207;-72
2023/06/01 01:38:58;;;;;;;0.70;0.70;;;;;;;18.81;100.00;100193.56;5055802;28;20574;-72
2023/06/01 01:41:25;;;;;;;0.63;0.63;;;;;;;18.70;100.00;100182.38;5015460;28;20208;-72
2023/06/01 01:43:53;;;;;;;0.80;0.80;;;;;;;18.68;100.00;100186.78;5015454;28;20262;-71
2023/06/01 01:46:25;;;;;;;0.70;0.70;;;;;;;18.39;100.00;100125.94;5015458;28;20261;-72
2023/06/01 01:48:59;;;;;;;0.70;0.70;;;;;;;18.74;100.00;100191.94;5015637;28;20691;-72
2023/06/01 01:51:31;;;;;;;0.75;0.75;;;;;;;18.11;100.00;100097.53;5015798;28;20634;-72
2023/06/01 01:53:59;;;;;;;0.70;0.70;;;;;;;18.25;100.00;100099.94;5015546;28;20203;-72
2023/06/01 01:56:27;;;;;;;0.70;0.70;;;;;;;18.77;100.00;100170.88;5015399;28;20212;-72
2023/06/01 01:58:55;;;;;;;0.60;0.60;;;;;;;18.77;100.00;100171.72;5015173;28;20205;-72
2023/06/01 02:01:24;;;;;;;0.70;0.70;;;;;;;18.29;100.00;100094.63;5015842;28;20228;-71
2023/06/01 02:04:00;;;;;;;0.60;0.60;;;;;;;18.41;100.00;100118.94;5015549;28;20204;-71
2023/06/01 02:06:27;;;;;;;0.60;0.60;;;;;;;18.74;100.00;100189.31;5015035;28;20248;-72
2023/06/01 02:08:53;;;;;;;2.25;2.08;;;;;;;18.49;100.00;100145.91;5015103;28;20562;-72
2023/06/01 02:11:20;;;;;;;1.02;1.02;;;;;;;18.66;100.00;100183.31;5015057;28;20205;-71
2023/06/01 02:13:47;;;;;;;0.70;0.70;;;;;;;18.44;100.00;100188.03;5015138;28;20197;-72
2023/06/01 02:16:15;;;;;;;0.85;0.85;;;;;;;17.84;100.00;100095.28;5014840;28;20259;-72
2023/06/01 02:18:45;;;;;;;0.57;0.57;;;;;;;18.36;100.00;100174.13;4997248;28;20197;-72
2023/06/01 02:21:13;;;;;;;1.40;1.40;;;;;;;18.06;100.00;100132.56;5015039;28;20197;-71
2023/06/01 02:23:40;;;;;;;0.60;0.60;;;;;;;17.78;100.00;100084.88;5015050;28;20208;-72
2023/06/01 02:26:07;;;;;;;0.70;0.70;;;;;;;17.92;100.00;100111.78;5015195;28;20231;-71
2023/06/01 02:28:34;;;;;;;0.60;0.60;;;;;;;17.55;100.00;100056.31;5015545;28;20266;-72
2023/06/01 02:31:01;;;;;;;0.60;0.60;;;;;;;18.13;100.00;100157.84;5014817;28;20208;-72
2023/06/01 02:33:28;;;;;;;0.60;0.60;;;;;;;18.07;100.00;100121.19;5014349;28;20209;-72
2023/06/01 02:35:56;;;;;;;0.80;0.80;;;;;;;18.39;100.00;100136.44;5013072;28;20208;-72
2023/06/01 02:38:23;;;;;;;0.90;0.90;;;;;;;18.36;100.00;100126.88;5012350;28;20240;-72
2023/06/01 02:40:50;;;;;;;0.60;0.60;;;;;;;18.74;100.00;100190.19;5043074;28;20234;-72
2023/06/01 02:43:17;;;;;;;0.60;0.60;;;;;;;18.34;100.00;100116.38;5034371;28;20266;-72
2023/06/01 02:45:43;;;;;;;0.60;0.60;;;;;;;18.48;100.00;100138.94;5054151;28;20203;-72
2023/06/01 02:48:10;;;;;;;0.60;0.60;;;;;;;18.70;100.00;100171.84;5054460;28;20651;-72
2023/06/01 02:50:37;;;;;;;0.70;0.70;;;;;;;18.76;100.00;100192.78;5054042;28;20781;-72
2023/06/01 02:53:06;;;;;;;0.60;0.60;;;;;;;18.51;100.00;100147.69;5019300;28;20211;-72
2023/06/01 02:55:32;;;;;;;0.70;0.70;;;;;;;18.39;100.00;100131.22;5057856;28;20614;-71
2023/06/01 02:57:59;;;;;;;0.65;0.65;;;;;;;18.32;100.00;100119.94;5062511;28;20743;-71
2023/06/01 03:00:27;;;;;;;0.60;0.60;;;;;;;18.69;100.00;100178.03;5062578;28;20199;-71
2023/06/01 03:02:54;;;;;;;0.70;0.70;;;;;;;18.98;100.00;100209.91;5053725;28;20752;-72
2023/06/01 03:05:21;;;;;;;0.68;0.68;;;;;;;19.08;100.00;100206.25;5054146;28;20195;-71
2023/06/01 03:07:48;;;;;;;0.60;0.60;;;;;;;18.80;100.00;100139.28;5053909;28;20231;-71
2023/06/01 03:10:16;;;;;;;0.60;0.60;;;;;;;19.19;100.00;100156.94;5053327;28;20210;-72
2023/06/01 03:12:43;;;;;;;0.70;0.70;;;;;;;19.30;100.00;100202.31;5053238;28;20200;-73
2023/06/01 03:15:13;;;;;;;0.60;0.60;;;;;;;19.46;100.00;100212.59;5052922;28;20283;-73
2023/06/01 03:17:40;;;;;;;0.57;0.57;;;;;;;19.53;100.00;100217.72;5053287;28;20203;-73
2023/06/01 03:20:14;;;;;;;0.70;0.70;;;;;;;19.88;100.00;100209.09;5052429;28;20559;-75
2023/06/01 03:22:42;;;;;;;0.57;0.57;;;;;;;20.18;100.00;100218.13;5017873;28;20203;-74
2023/06/01 03:25:11;;;;;;;0.60;0.60;;;;;;;20.70;100.00;100228.34;5052673;28;20227;-75
2023/06/01 03:27:39;;;;;;;1.20;1.20;;;;;;;21.25;100.00;100241.94;5052917;28;20238;-73
2023/06/01 03:30:09;;;;;;;0.68;0.68;;;;;;;21.75;100.00;100260.84;5052754;28;20298;-72
2023/06/01 03:32:37;;;;;;;0.70;0.70;;;;;;;22.17;100.00;100270.19;5053272;28;20206;-72
2023/06/01 03:35:07;;;;;;;0.50;0.50;;;;;;;22.62;100.00;100282.91;5053258;28;20231;-72
2023/06/01 03:37:34;;;;;;;0.70;0.70;;;;;;;22.41;100.00;100199.03;5053921;28;20204;-73
2023/06/01 03:40:00;;;;;;;0.70;0.70;;;;;;;22.86;100.00;100192.31;5044996;28;20227;-72
2023/06/01 03:42:27;;;;;;;0.75;0.75;;;;;;;23.68;100.00;100247.69;5030017;28;20196;-73
2023/06/01 03:44:55;;;;;;;0.60;0.60;;;;;;;23.66;100.00;100202.72;5053635;28;20199;-73
2023/06/01 03:47:22;;;;;;;0.60;0.60;;;;;;;24.07;100.00;100287.75;5057701;28;20219;-76
2023/06/01 03:49:49;;;;;;;1.38;1.30;;;;;;;24.23;100.00;100285.41;5059143;28;20256;-72
2023/06/01 03:52:18;;;;;;;0.70;0.70;;;;;;;24.50;100.00;100276.41;5073409;28;20218;-72
2023/06/01 03:54:45;;;;;;;0.82;0.82;;;;;;;24.46;100.00;100273.03;5072691;28;20191;-73
2023/06/01 03:57:11;;;;;;;0.60;0.60;;;;;;;24.31;100.00;100292.16;5052355;28;20199;-73
2023/06/01 03:59:38;;;;;;;0.70;0.70;;;;;;;24.01;100.00;100294.13;5051856;28;20203;-73
2023/06/01 04:02:09;;;;;;;0.60;0.60;;;;;;;23.75;100.00;100294.22;5052364;28;20207;-72
2023/06/01 04:04:36;;;;;;;0.65;0.65;;;;;;;22.60;100.00;100150.81;5051901;28;20191;-73
2023/06/01 04:07:03;;;;;;;1.35;0.75;;;;;;;24.09;100.00;100292.06;5051987;28;20310;-72
2023/06/01 04:09:31;;;;;;;0.68;0.68;;;;;;;24.94;100.00;100307.38;5052241;28;20192;-71
2023/06/01 04:11:57;;;;;;;0.60;0.60;;;;;;;25.67;98.32;100303.47;5051858;28;20197;-73
2023/06/01 04:14:24;;;;;;;0.60;0.60;;;;;;;25.49;92.85;100228.09;5016889;28;20199;-73
2023/06/01 04:16:51;;;;;;;0.60;0.60;;;;;;;25.84;92.10;100258.41;5052039;28;20204;-72
2023/06/01 04:19:19;;;;;;;0.60;0.60;;;;;;;25.88;89.76;100236.97;5051628;28;20191;-73
2023/06/01 04:21:46;;;;;;;0.60;0.60;;;;;;;25.79;90.20;100311.75;5051797;28;20203;-70
2023/06/01 04:24:13;;;;;;;0.60;0.60;;;;;;;25.40;93.83;100284.25;5051996;28;20215;-70
2023/06/01 04:26:39;;;;;;;0.60;0.60;;;;;;;26.04;90.07;100292.97;5051383;28;20631;-70
2023/06/01 04:29:08;;;;;;;0.50;0.50;;;;;;;26.84;86.28;100315.81;5052032;28;20223;-73
2023/06/01 04:31:35;;;;;;;0.60;0.60;;;;;;;27.48;79.57;100318.00;5050938;28;20214;-73
2023/06/01 04:34:02;;;;;;;0.60;0.60;;;;;;;28.15;75.61;100323.38;5027357;28;20251;-74
2023/06/01 04:36:30;;;;;;;0.57;0.57;;;;;;;28.46;71.55;100331.47;5050798;28;20199;-72
2023/06/01 04:38:57;;;;;;;0.55;0.55;;;;;;;27.94;74.75;100333.34;5016041;28;20666;-71
2023/06/01 04:41:24;;;;;;;0.90;0.90;;;;;;;27.62;74.05;100339.47;5050989;28;20745;-72
2023/06/01 04:43:52;;;;;;;0.60;0.60;;;;;;;27.08;79.27;100330.59;5051524;28;20614;-73
2023/06/01 04:46:23;;;;;;;0.60;0.60;;;;;;;27.03;80.93;100322.00;5050637;28;20613;-73
2023/06/01 04:48:52;;;;;;;0.65;0.65;;;;;;;27.51;79.41;100288.53;5031438;28;20235;-73
2023/06/01 04:51:21;;;;;;;0.50;0.50;;;;;;;28.34;73.69;100328.59;5049933;28;20281;-73
2023/06/01 04:53:51;;;;;;;1.02;1.02;;;;;;;28.84;69.63;100331.16;5017097;28;20294;-73
2023/06/01 04:56:20;;;;;;;0.40;0.40;;;;;;;28.55;68.17;100335.41;5050657;28;20192;-73
2023/06/01 04:58:48;;;;;;;0.68;0.68;;;;;;;28.90;66.85;100337.03;5050462;28;20195;-74
2023/06/01 05:01:15;;;;;;;0.65;0.65;;;;;;;28.48;66.65;100340.22;5050517;28;20202;-72
2023/06/01 05:03:43;;;;;;;0.60;0.60;;;;;;;29.05;65.61;100340.63;5012975;28;20659;-72
2023/06/01 05:06:12;;;;;;;0.50;0.50;;;;;;;29.12;64.97;100349.16;5043015;28;20222;-74
2023/06/01 05:08:39;;;;;;;0.65;0.65;;;;;;;29.07;64.15;100333.41;5047373;28;20314;-73
2023/06/01 05:11:08;;;;;;;0.60;0.60;;;;;;;29.37;62.13;100349.50;5050655;28;20207;-71
2023/06/01 05:13:36;;;;;;;0.60;0.60;;;;;;;28.43;66.24;100333.44;5041961;28;20208;-72
2023/06/01 05:16:03;;;;;;;0.60;0.60;;;;;;;27.89;70.40;100347.88;5046668;28;20233;-71
2023/06/01 05:18:30;;;;;;;0.70;0.70;;;;;;;27.79;72.06;100317.31;5051065;28;20203;-71
2023/06/01 05:20:57;;;;;;;0.50;0.50;;;;;;;28.59;69.29;100331.63;5051252;28;20674;-72
2023/06/01 05:23:24;;;;;;;0.60;0.60;;;;;;;28.98;63.60;100340.13;4999067;28;20199;-71
2023/06/01 05:25:51;;;;;;;0.68;0.68;;;;;;;28.60;66.40;100336.03;5014080;28;20208;-81
2023/06/01 05:28:20;;;;;;;0.75;0.75;;;;;;;28.43;66.10;100310.25;5050322;28;20718;-72
2023/06/01 05:30:47;;;;;;;0.60;0.60;;;;;;;28.17;67.97;100336.63;5052203;28;20275;-71
2023/06/01 05:33:14;;;;;;;0.60;0.60;;;;;;;27.70;71.57;100317.78;5033235;28;20211;-70
2023/06/01 05:35:40;;;;;;;0.60;0.60;;;;;;;26.49;75.27;100218.19;5051896;28;20199;-70
2023/06/01 05:38:07;;;;;;;0.85;0.85;;;;;;;27.50;71.17;100250.38;5051139;28;20211;-71
2023/06/01 05:40:35;;;;;;;1.90;1.75;;;;;;;26.94;75.21;100282.50;5051154;28;20235;-71
2023/06/01 05:43:02;;;;;;;0.80;0.80;;;;;;;26.68;75.98;100261.59;5051103;28;20211;-71
2023/06/01 05:45:30;;;;;;;0.50;0.50;;;;;;;26.45;80.41;100325.66;5051202;28;20207;-71
2023/06/01 05:47:57;;;;;;;0.70;0.70;;;;;;;25.35;86.39;100283.56;5016102;28;20705;-70
2023/06/01 05:50:24;;;;;;;0.60;0.60;;;;;;;25.16;91.53;100341.84;5051477;28;20207;-71
2023/06/01 05:52:51;;;;;;;0.70;0.70;;;;;;;24.24;95.01;100221.75;5050983;28;20286;-71
2023/06/01 05:55:18;;;;;;;0.68;0.68;;;;;;;24.55;99.24;100295.63;5051238;28;20219;-71
2023/06/01 05:57:45;;;;;;;0.60;0.60;;;;;;;24.53;98.62;100260.38;5051078;28;20245;-71
2023/06/01 06:00:15;;;;;;;0.73;0.73;;;;;;;25.20;97.29;100348.78;5050995;28;20637;-70
2023/06/01 06:02:43;;;;;;;0.90;0.90;;;;;;;24.70;98.07;100324.22;5050836;28;20282;-71
2023/06/01 06:05:10;;;;;;;0.70;0.70;;;;;;;23.76;100.00;100265.94;5050883;28;20200;-70
2023/06/01 06:07:37;;;;;;;1.25;1.25;;;;;;;24.36;100.00;100360.91;5050768;28;20231;-70
2023/06/01 06:10:05;;;;;;;0.98;0.98;;;;;;;24.00;100.00;100270.34;5016349;28;20749;-71
2023/06/01 06:12:32;;;;;;;0.65;0.65;;;;;;;24.47;100.00;100333.03;5054694;28;20203;-71
2023/06/01 06:14:58;;;;;;;0.60;0.60;;;;;;;24.83;100.00;100320.19;5054831;28;20207;-71
2023/06/01 06:17:25;;;;;;;0.70;0.70;;;;;;;25.39;98.92;100356.84;5054502;28;20207;-71
2023/06/01 06:19:53;;;;;;;0.68;0.68;;;;;;;25.31;99.02;100362.47;5054488;28;20203;-71
2023/06/01 06:22:20;;;;;;;0.63;0.63;;;;;;;25.11;99.61;100338.56;5054359;28;20273;-70
2023/06/01 06:24:49;;;;;;;0.70;0.70;;;;;;;25.00;97.61;100287.69;5054577;28;20268;-70
2023/06/01 06:27:15;;;;;;;0.85;0.85;;;;;;;25.21;94.57;100328.41;5054609;28;20234;-71
2023/06/01 06:29:42;;;;;;;0.70;0.70;;;;;;;25.41;95.79;100349.69;5035956;28;20643;-70
2023/06/01 06:32:10;;;;;;;1.55;1.27;;;;;;;25.72;94.08;100363.44;5054262;28;20199;-71
2023/06/01 06:34:36;;;;;;;0.98;0.98;;;;;;;25.36;95.32;100317.16;5054072;28;20207;-71
2023/06/01 06:37:06;;;;;;;0.63;0.63;;;;;;;25.80;94.94;100365.75;5019612;28;20208;-70
2023/06/01 06:39:33;;;;;;;0.80;0.80;;;;;;;25.63;95.91;100300.09;5054111;28;20231;-71
2023/06/01 06:42:01;;;;;;;0.85;0.85;;;;;;;24.96;95.30;100265.72;5053919;28;20207;-71
2023/06/01 06:44:27;;;;;;;1.40;1.27;;;;;;;24.98;97.21;100301.00;5054076;28;20202;-71
2023/06/01 06:46:54;;;;;;;0.70;0.70;;;;;;;24.94;100.00;100280.84;5053823;28;20203;-70
2023/06/01 06:49:21;;;;;;;0.90;0.85;;;;;;;25.52;98.23;100351.00;5053807;28;20214;-71
2023/06/01 06:51:48;;;;;;;0.60;0.60;;;;;;;25.74;97.67;100361.59;5018801;28;20195;-71
2023/06/01 06:54:16;;;;;;;0.60;0.60;;;;;;;25.57;100.00;100318.94;5054132;28;20230;-71
2023/06/01 06:56:44;;;;;;;0.60;0.60;;;;;;;25.75;98.15;100358.00;5053862;28;20618;-71
2023/06/01 06:59:10;;;;;;;0.88;0.88;;;;;;;25.21;100.00;100277.97;5053943;28;20230;-71
2023/06/01 07:01:37;;;;;;;2.67;2.47;;;;;;;25.83;100.00;100363.84;5053675;28;20729;-71
2023/06/01 07:04:05;;;;;;;0.70;0.70;;;;;;;25.63;97.74;100321.34;5053776;28;20633;-70
2023/06/01 07:06:33;;;;;;;0.70;0.70;;;;;;;25.52;100.00;100352.78;5053690;28;20242;-70
2023/06/01 07:09:00;;;;;;;0.70;0.70;;;;;;;25.49;100.00;100332.50;5053657;28;20227;-70
2023/06/01 07:11:29;;;;;;;0.90;0.90;;;;;;;25.41;100.00;100339.94;5053674;28;20204;-71
2023/06/01 07:13:57;;;;;;;0.70;0.70;;;;;;;25.06;100.00;100306.88;5053521;28;20257;-71
2023/06/01 07:16:25;;;;;;;0.70;0.70;;;;;;;25.09;100.00;100308.53;5053421;28;20663;-71
2023/06/01 07:18:52;;;;;;;1.13;1.13;;;;;;;25.20;100.00;100278.91;5053232;28;20591;-70
2023/06/01 07:21:19;;;;;;;9.85;1.35;;;;;;;25.81;100.00;100356.88;5053175;28;20648;-70
2023/06/01 07:23:46;;;;;;;0.70;0.70;;;;;;;25.36;100.00;100259.63;5052064;28;20195;-70
2023/06/01 07:26:12;;;;;;;0.60;0.60;;;;;;;25.96;98.88;100342.94;5053213;28;20208;-70
2023/06/01 07:28:41;;;;;;;0.68;0.68;;;;;;;26.30;97.07;100366.22;5053189;28;20779;-71
2023/06/01 07:31:08;;;;;;;0.70;0.70;;;;;;;26.54;95.69;100371.28;5053183;28;20200;-72
2023/06/01 07:33:37;;;;;;;0.50;0.50;;;;;;;25.78;96.48;100368.50;5053132;28;20269;-71
2023/06/01 07:36:04;;;;;;;0.80;0.80;;;;;;;25.38;99.60;100376.38;5053182;28;20211;-71
2023/06/01 07:38:32;;;;;;;0.70;0.70;;;;;;;24.76;100.00;100286.00;5053023;28;20200;-70
2023/06/01 07:40:59;;;;;;;0.70;0.70;;;;;;;25.45;100.00;100335.34;5052811;28;20632;-70
2023/06/01 07:43:26;;;;;;;0.73;0.73;;;;;;;26.04;96.67;100343.47;5053079;28;20211;-71
2023/06/01 07:45:54;;;;;;;0.80;0.80;;;;;;;25.86;96.07;100345.13;5052745;28;20212;-71
2023/06/01 07:48:21;;;;;;;0.70;0.70;;;;;;;25.93;96.72;100338.63;5053248;28;20227;-71
2023/06/01 07:50:48;;;;;;;0.73;0.73;;;;;;;26.68;95.48;100361.84;5052854;28;20566;-71
2023/06/01 07:53:15;;;;;;;1.40;1.08;;;;;;;26.49;92.04;100274.91;5052745;28;20227;-70
2023/06/01 07:55:43;;;;;;;0.68;0.68;;;;;;;26.67;90.30;100328.16;5052736;28;20203;-71
2023/06/01 07:58:10;;;;;;;0.70;0.70;;;;;;;26.52;89.87;100305.81;5052544;28;20200;-71
2023/06/01 08:00:37;;;;;;;0.80;0.80;;;;;;;26.45;90.21;100299.06;5034292;28;20199;-71
2023/06/01 08:03:05;;;;;;;0.60;0.60;;;;;;;26.81;89.68;100339.03;5052766;28;20273;-71
2023/06/01 08:05:35;;;;;;;0.70;0.70;;;;;;;26.18;93.49;100322.47;5052365;28;20211;-70
2023/06/01 08:08:02;;;;;;;0.88;0.88;;;;;;;25.79;100.00;100343.63;5017473;28;20748;-71
2023/06/01 08:10:29;;;;;;;0.60;0.60;;;;;;;26.09;99.18;100310.41;5052360;28;20740;-71
2023/06/01 08:12:57;;;;;;;0.70;0.70;;;;;;;26.17;97.57;100309.19;5052292;28;20195;-71
2023/06/01 08:15:25;;;;;;;0.60;0.60;;;;;;;25.74;97.44;100271.25;5052536;28;20238;-72
2023/06/01 08:17:52;;;;;;;0.70;0.70;;;;;;;25.74;98.82;100279.22;5052393;28;20658;-71
2023/06/01 08:20:22;;;;;;;0.70;0.70;;;;;;;26.08;98.83;100298.03;5052297;28;20250;-71
2023/06/01 08:22:50;;;;;;;0.77;0.77;;;;;;;26.35;97.50;100325.22;5052301;28;20216;-71
2023/06/01 08:25:17;;;;;;;0.80;0.80;;;;;;;26.05;96.68;100271.59;5052170;28;20666;-71
2023/06/01 08:27:44;;;;;;;0.77;0.77;;;;;;;26.31;96.23;100344.91;5052422;28;20227;-72
2023/06/01 08:30:12;;;;;;;0.60;0.60;;;;;;;25.33;97.23;100184.56;5050501;28;20195;-73
2023/06/01 08:32:39;;;;;;;0.70;0.70;;;;;;;25.81;97.47;100238.19;5051631;28;20203;-73
2023/06/01 08:35:07;;;;;;;0.80;0.80;;;;;;;26.26;97.54;100306.13;5051532;28;20203;-72
2023/06/01 08:37:36;;;;;;;0.88;0.88;;;;;;;25.53;100.00;100180.13;5000398;28;20257;-72
2023/06/01 08:40:06;;;;;;;0.90;0.90;;;;;;;26.42;98.20;100331.97;5032871;28;20230;-73
2023/06/01 08:42:44;;;;;;;0.63;0.63;;;;;;;26.00;98.31;100241.75;5037970;28;20231;-72
2023/06/01 08:45:13;;;;;;;0.75;0.75;;;;;;;25.80;98.66;100251.50;5037509;28;20211;-72
2023/06/01 08:47:41;;;;;;;0.57;0.57;;;;;;;25.47;100.00;100264.47;5037573;28;20214;-74
2023/06/01 08:50:10;;;;;;;0.70;0.70;;;;;;;25.59;100.00;100250.69;5051444;28;20200;-72
2023/06/01 08:52:39;;;;;;;0.70;0.70;;;;;;;25.67;100.00;100261.84;5033084;28;20710;-73
2023/06/01 08:55:07;;;;;;;0.70;0.70;;;;;;;25.96;100.00;100295.09;5033313;28;20697;-73
2023/06/01 08:57:34;;;;;;;0.70;0.70;;;;;;;26.04;100.00;100299.09;5051489;28;20235;-72
2023/06/01 09:00:01;;;;;;;0.90;0.90;;;;;;;26.31;100.00;100314.78;5051425;28;20198;-73
2023/06/01 09:02:28;;;;;;;1.30;0.95;;;;;;;26.51;98.39;100286.31;5051142;28;20211;-72
2023/06/01 09:04:55;;;;;;;0.60;0.60;;;;;;;26.83;95.17;100271.50;5051445;28;20228;-72
2023/06/01 09:07:22;;;;;;;0.70;0.70;;;;;;;26.91;91.81;100264.03;5051315;28;20678;-72
2023/06/01 09:09:50;;;;;;;1.35;1.27;;;;;;;26.93;92.08;100290.56;5051249;28;20231;-73
2023/06/01 09:12:23;;;;;;;0.63;0.63;;;;;;;26.60;93.35;100277.06;5051414;28;20206;-72
2023/06/01 09:14:51;;;;;;;0.70;0.70;;;;;;;26.79;94.78;100301.00;5046018;28;20200;-72
2023/06/01 09:17:23;;;;;;;0.60;0.60;;;;;;;27.05;93.65;100306.78;5042677;28;20207;-71
2023/06/01 09:19:54;;;;;;;0.90;0.90;;;;;;;26.47;94.03;100246.66;5051202;28;20659;-71
2023/06/01 09:22:21;;;;;;;0.70;0.70;;;;;;;26.97;94.03;100308.09;5040231;28;20207;-72
2023/06/01 09:24:59;;;;;;;0.70;0.70;;;;;;;27.01;91.66;100305.22;5045256;28;20200;-71
2023/06/01 09:27:26;;;;;;;0.80;0.80;;;;;;;26.63;92.74;100300.84;5042035;28;20217;-71
2023/06/01 09:29:59;;;;;;;0.60;0.60;;;;;;;26.53;95.89;100304.88;5036897;28;20227;-71
2023/06/01 09:32:26;;;;;;;0.70;0.70;;;;;;;26.37;94.02;100224.09;5051279;28;20257;-72
2023/06/01 09:34:54;;;;;;;0.70;0.70;;;;;;;27.03;90.13;100273.22;5051037;28;20203;-71
2023/06/01 09:37:21;;;;;;;1.38;1.38;;;;;;;26.54;88.84;100304.78;5050854;28;20207;-75
2023/06/01 09:39:48;;;;;;;0.70;0.70;;;;;;;26.63;87.06;100260.94;5050807;28;20238;-72
2023/06/01 09:42:16;;;;;;;0.68;0.68;;;;;;;27.27;83.01;100287.09;5015152;28;20199;-70
2023/06/01 09:44:44;;;;;;;0.70;0.70;;;;;;;27.14;79.00;100293.97;5043306;28;20237;-69
2023/06/01 09:47:12;;;;;;;0.95;0.95;;;;;;;27.24;79.31;100287.25;5054108;28;20203;-70
2023/06/01 09:49:40;;;;;;;0.52;0.52;;;;;;;27.36;79.03;100276.00;5055021;28;20234;-77
2023/06/01 09:52:14;;;;;;;0.70;0.70;;;;;;;27.46;79.02;100261.28;5040880;28;20199;-70
2023/06/01 09:54:43;;;;;;;0.65;0.65;;;;;;;27.36;76.65;100260.00;5054728;28;20218;-71
2023/06/01 09:57:10;;;;;;;2.45;2.25;;;;;;;27.61;81.78;100262.31;5054680;28;20207;-71
2023/06/01 09:59:44;;;;;;;0.70;0.70;;;;;;;27.83;79.26;100281.53;5054786;28;20286;-71
2023/06/01 10:02:14;;;;;;;0.60;0.60;;;;;;;27.89;78.09;100274.09;5054567;28;20575;-71
2023/06/01 10:04:43;;;;;;;0.80;0.80;;;;;;;27.93;79.07;100280.97;5054969;28;20207;-71
2023/06/01 10:07:12;;;;;;;1.00;1.00;;;;;;;28.16;75.54;100279.78;5040455;28;20196;-71
2023/06/01 10:09:39;;;;;;;0.70;0.70;;;;;;;28.03;76.50;100268.88;5054409;28;20675;-71
2023/06/01 10:12:08;;;;;;;0.50;0.50;;;;;;;27.64;72.79;100275.47;5054781;28;20199;-70
2023/06/01 10:14:37;;;;;;;0.65;0.65;;;;;;;27.67;71.56;100269.97;5054361;28;20196;-70
2023/06/01 10:17:07;;;;;;;0.70;0.70;;;;;;;27.44;71.72;100273.78;5054547;28;20199;-70
2023/06/01 10:19:34;;;;;;;0.60;0.60;;;;;;;27.45;72.12;100270.22;5054288;28;20199;-71
2023/06/01 10:22:01;;;;;;;0.70;0.70;;;;;;;27.41;70.17;100279.25;5054519;28;20248;-70
2023/06/01 10:24:28;;;;;;;0.75;0.75;;;;;;;27.26;73.17;100274.69;5054292;28;20199;-69
2023/06/01 10:27:06;;;;;;;0.73;0.73;;;;;;;27.52;74.62;100274.28;5054659;28;20204;-70
2023/06/01 10:29:33;;;;;;;0.70;0.70;;;;;;;27.67;74.32;100268.16;5054198;28;20290;-70
2023/06/01 10:32:03;;;;;;;0.65;0.65;;;;;;;27.76;74.55;100254.34;5054437;28;20210;-71
2023/06/01 10:34:42;;;;;;;0.60;0.60;;;;;;;27.48;75.26;100251.41;5054252;28;20214;-70
2023/06/01 10:37:18;;;;;;;1.00;1.00;;;;;;;27.85;74.93;100259.19;5054379;28;20199;-69
2023/06/01 10:39:45;;;;;;;0.93;0.93;;;;;;;27.69;73.16;100254.75;5053937;28;20651;-69
2023/06/01 10:42:38;;;;;;;0.60;0.60;;;;;;;27.90;73.64;100254.47;5035635;28;20199;-70
2023/06/01 10:45:07;;;;;;;0.68;0.68;;;;;;;27.97;74.14;100253.19;5053888;28;20231;-70
2023/06/01 10:47:48;;;;;;;0.60;0.60;;;;;;;28.22;69.38;100247.41;5054175;28;20261;-69
2023/06/01 10:50:19;;;;;;;0.70;0.70;;;;;;;27.95;72.98;100248.91;5053873;28;20314;-70
2023/06/01 10:52:47;;;;;;;0.60;0.60;;;;;;;27.77;73.91;100242.75;5019059;28;20203;-70
2023/06/01 10:55:22;;;;;;;0.70;0.70;;;;;;;27.97;74.12;100225.66;5035518;28;20382;-70
2023/06/01 10:57:50;;;;;;;0.70;0.70;;;;;;;27.66;72.45;100237.13;5053521;28;20294;-72
2023/06/01 11:00:20;;;;;;;0.65;0.65;;;;;;;28.08;73.51;100218.84;5053918;28;20200;-71
2023/06/01 11:02:52;;;;;;;0.60;0.60;;;;;;;28.26;65.99;100240.13;5019083;28;20203;-71
2023/06/01 11:05:42;;;;;;;0.63;0.63;;;;;;;28.24;68.62;100228.69;5053651;28;20203;-70
2023/06/01 11:08:10;;;;;;;0.60;0.60;;;;;;;28.26;66.41;100232.13;5018690;28;20244;-70
2023/06/01 11:10:58;;;;;;;0.70;0.70;;;;;;;28.35;64.06;100227.16;5053522;28;20223;-69
2023/06/01 11:13:27;;;;;;;0.70;0.70;;;;;;;28.46;63.09;100219.41;5053401;28;20253;-70
2023/06/01 11:16:28;;;;;;;0.75;0.75;;;;;;;28.51;63.51;100232.47;5053425;28;20238;-69
2023/06/01 11:18:58;;;;;;;0.98;0.98;;;;;;;27.92;60.61;100164.63;5053670;28;20222;-71
2023/06/01 11:21:29;;;;;;;0.70;0.70;;;;;;;28.40;59.92;100230.41;5053563;28;20242;-71
2023/06/01 11:23:57;;;;;;;0.50;0.50;;;;;;;28.39;60.70;100223.38;5053433;28;20662;-70
2023/06/01 11:26:27;;;;;;;0.70;0.70;;;;;;;28.33;58.96;100218.34;5053086;28;20195;-70
2023/06/01 11:29:03;;;;;;;2.88;1.20;;;;;;;28.32;57.24;100206.00;5053099;28;20219;-70